createdAt,value
2023-03-26T00:01:25.701Z,7.88
2023-03-26T00:03:58.016Z,7.93
2023-03-26T00:06:28.796Z,7.87
2023-03-26T00:08:57.889Z,7.86
2023-03-26T00:11:27.841Z,7.83
2023-03-26T00:13:59.535Z,7.79
2023-03-26T00:16:28.899Z,7.78
2023-03-26T00:18:57.667Z,7.82
2023-03-26T00:21:27.732Z,7.77
2023-03-26T00:24:01.129Z,7.80
2023-03-26T00:26:31.075Z,7.74
2023-03-26T00:29:01.022Z,7.74
2023-03-26T00:31:28.016Z,7.77
2023-03-26T00:33:55.785Z,7.76
2023-03-26T00:36:25.707Z,7.74
2023-03-26T00:38:54.004Z,7.78
2023-03-26T00:41:25.838Z,7.75
2023-03-26T00:43:57.959Z,7.79
2023-03-26T00:46:26.829Z,7.76
2023-03-26T00:48:54.405Z,7.75
2023-03-26T00:51:21.980Z,7.66
2023-03-26T00:53:50.626Z,7.75
2023-03-26T00:56:18.797Z,7.72
2023-03-26T00:58:47.468Z,7.72
2023-03-26T01:01:18.994Z,7.74
2023-03-26T01:04:00.948Z,7.75
2023-03-26T01:06:36.513Z,7.72
2023-03-26T01:09:18.293Z,7.68
2023-03-26T01:11:45.737Z,7.70
2023-03-26T01:14:23.690Z,7.66
2023-03-26T01:16:58.438Z,7.66
2023-03-26T01:25:21.185Z,7.63
2023-03-26T01:27:55.369Z,7.60
2023-03-26T01:30:35.273Z,7.68
2023-03-26T01:33:14.620Z,7.64
2023-03-26T01:36:21.668Z,7.68
2023-03-26T01:38:55.457Z,7.70
2023-03-26T01:41:32.646Z,7.66
2023-03-26T01:44:24.745Z,7.69
2023-03-26T01:46:53.002Z,7.67
2023-03-26T01:49:20.300Z,7.69
2023-03-26T01:51:47.807Z,7.66
2023-03-26T01:54:23.664Z,7.66
2023-03-26T01:57:15.638Z,7.59
2023-03-26T01:59:43.890Z,7.68
2023-03-26T02:02:20.107Z,7.71
2023-03-26T02:04:58.212Z,7.69
2023-03-26T02:07:41.172Z,7.67
2023-03-26T02:10:15.867Z,7.66
2023-03-26T02:12:44.753Z,7.66
2023-03-26T02:15:13.319Z,7.62
2023-03-26T02:17:40.667Z,7.59
2023-03-26T02:20:14.629Z,7.52
2023-03-26T02:22:46.018Z,7.59
2023-03-26T02:25:18.576Z,7.55
2023-03-26T02:27:46.763Z,7.52
2023-03-26T02:30:26.100Z,7.43
2023-03-26T02:32:54.699Z,7.37
2023-03-26T02:35:22.580Z,7.37
2023-03-26T02:37:51.009Z,7.24
2023-03-26T02:40:21.177Z,7.31
2023-03-26T02:42:49.555Z,7.29
2023-03-26T02:45:17.233Z,7.17
2023-03-26T02:47:46.214Z,7.13
2023-03-26T02:50:13.519Z,7.10
2023-03-26T02:52:40.663Z,7.03
2023-03-26T02:55:08.154Z,7.05
2023-03-26T02:57:35.657Z,7.03
2023-03-26T03:00:14.131Z,7.02
2023-03-26T03:02:41.548Z,7.03
2023-03-26T03:05:08.965Z,6.97
2023-03-26T03:07:38.996Z,6.93
2023-03-26T03:10:11.012Z,6.86
2023-03-26T03:12:38.428Z,6.87
2023-03-26T03:15:05.862Z,6.97
2023-03-26T03:17:33.384Z,6.92
2023-03-26T03:20:01.141Z,6.94
2023-03-26T03:22:29.986Z,6.97
2023-03-26T03:24:59.908Z,6.99
2023-03-26T03:27:28.607Z,7.04
2023-03-26T03:29:56.901Z,7.08
2023-03-26T03:32:24.145Z,7.01
2023-03-26T03:34:52.112Z,6.97
2023-03-26T03:37:19.946Z,7.04
2023-03-26T03:39:47.214Z,7.08
2023-03-26T03:42:14.354Z,7.03
2023-03-26T03:44:42.224Z,6.94
2023-03-26T03:47:13.709Z,6.96
2023-03-26T03:49:42.627Z,6.97
2023-03-26T03:52:09.925Z,6.97
2023-03-26T03:54:37.027Z,6.93
2023-03-26T03:57:04.215Z,6.97
2023-03-26T03:59:31.292Z,6.96
2023-03-26T04:01:58.729Z,7.03
2023-03-26T04:04:26.452Z,6.99
2023-03-26T04:06:53.626Z,6.92
2023-03-26T04:09:20.902Z,6.96
2023-03-26T04:11:47.998Z,6.93
2023-03-26T04:14:15.108Z,6.93
2023-03-26T04:16:42.300Z,6.95
2023-03-26T04:19:14.362Z,6.87
2023-03-26T04:21:42.762Z,6.79
2023-03-26T04:24:11.589Z,6.87
2023-03-26T04:26:38.707Z,6.81
2023-03-26T04:29:12.033Z,6.88
2023-03-26T04:31:39.310Z,6.88
2023-03-26T04:34:14.256Z,6.85
2023-03-26T04:36:42.490Z,6.87
2023-03-26T04:39:13.161Z,6.90
2023-03-26T04:41:41.063Z,6.92
2023-03-26T04:44:08.527Z,6.91
2023-03-26T04:46:35.783Z,6.82
2023-03-26T04:49:03.208Z,6.86
2023-03-26T04:51:39.500Z,6.93
2023-03-26T04:54:07.442Z,6.92
2023-03-26T04:56:45.679Z,6.87
2023-03-26T04:59:17.957Z,6.78
2023-03-26T05:01:47.787Z,6.84
2023-03-26T05:04:14.955Z,6.73
2023-03-26T05:06:43.519Z,6.87
2023-03-26T05:09:12.241Z,6.80
2023-03-26T05:11:39.449Z,6.85
2023-03-26T05:14:06.853Z,6.84
2023-03-26T05:16:34.963Z,6.85
2023-03-26T05:19:04.845Z,6.83
2023-03-26T05:21:32.450Z,6.81
2023-03-26T05:23:59.601Z,6.80
2023-03-26T05:26:27.462Z,6.88
2023-03-26T05:28:55.285Z,6.87
2023-03-26T05:31:22.891Z,6.81
2023-03-26T05:33:50.502Z,6.77
2023-03-26T05:36:19.281Z,6.63
2023-03-26T05:38:49.391Z,6.68
2023-03-26T05:41:17.530Z,6.72
2023-03-26T05:43:45.841Z,6.69
2023-03-26T05:46:14.023Z,6.79
2023-03-26T05:48:41.365Z,6.72
2023-03-26T05:51:09.310Z,6.71
2023-03-26T05:53:37.481Z,6.75
2023-03-26T05:56:05.007Z,6.81
2023-03-26T05:58:34.532Z,6.83
2023-03-26T06:01:08.651Z,6.83
2023-03-26T06:03:39.197Z,6.80
2023-03-26T06:06:08.777Z,6.71
2023-03-26T06:08:36.289Z,6.82
2023-03-26T06:11:07.310Z,6.88
2023-03-26T06:13:34.715Z,6.77
2023-03-26T06:16:02.643Z,6.88
2023-03-26T06:18:30.624Z,6.92
2023-03-26T06:20:58.023Z,6.94
2023-03-26T06:23:27.043Z,6.98
2023-03-26T06:25:56.215Z,6.92
2023-03-26T06:28:23.870Z,6.94
2023-03-26T06:30:52.491Z,7.01
2023-03-26T06:33:22.741Z,6.96
2023-03-26T06:35:52.309Z,7.03
2023-03-26T06:38:19.432Z,7.13
2023-03-26T06:40:46.606Z,7.06
2023-03-26T06:43:15.062Z,6.89
2023-03-26T06:45:43.270Z,7.04
2023-03-26T06:48:13.510Z,7.10
2023-03-26T06:50:41.030Z,7.06
2023-03-26T06:53:11.497Z,7.14
2023-03-26T06:55:38.687Z,7.07
2023-03-26T06:58:07.078Z,7.06
2023-03-26T07:00:34.590Z,7.09
2023-03-26T07:03:04.412Z,7.09
2023-03-26T07:05:32.054Z,6.98
2023-03-26T07:07:59.170Z,7.07
2023-03-26T07:10:26.417Z,7.08
2023-03-26T07:12:54.315Z,6.98
2023-03-26T07:15:21.543Z,6.81
2023-03-26T07:17:49.249Z,6.78
2023-03-26T07:20:17.078Z,6.77
2023-03-26T07:22:47.637Z,6.82
2023-03-26T07:25:16.140Z,6.71
2023-03-26T07:28:32.082Z,6.76
2023-03-26T07:31:18.081Z,7.06
2023-03-26T07:34:04.177Z,7.27
2023-03-26T07:36:51.128Z,7.28
2023-03-26T07:39:28.203Z,7.34
2023-03-26T07:42:10.414Z,7.52
2023-03-26T07:44:54.447Z,7.45
2023-03-26T07:47:31.365Z,7.61
2023-03-26T07:50:02.062Z,7.82
2023-03-26T07:52:34.879Z,7.67
2023-03-26T07:55:08.832Z,7.56
2023-03-26T07:57:58.126Z,7.62
2023-03-26T08:00:42.959Z,7.63
2023-03-26T08:03:48.512Z,7.74
2023-03-26T08:06:49.756Z,7.90
2023-03-26T08:09:46.890Z,8.02
2023-03-26T08:12:41.708Z,8.05
2023-03-26T08:15:23.305Z,8.04
2023-03-26T08:18:27.788Z,7.71
2023-03-26T08:21:10.512Z,7.77
2023-03-26T08:24:23.066Z,7.71
2023-03-26T08:27:37.128Z,7.78
2023-03-26T08:30:31.521Z,7.79
2023-03-26T08:36:18.156Z,7.68
2023-03-26T08:38:46.882Z,7.89
2023-03-26T08:41:45.929Z,7.96
2023-03-26T08:44:45.681Z,8.05
2023-03-26T08:47:28.613Z,8.00
2023-03-26T08:50:37.670Z,7.89
2023-03-26T08:57:03.242Z,8.08
2023-03-26T09:00:11.493Z,8.04
2023-03-26T09:02:56.420Z,8.12
2023-03-26T09:05:58.129Z,8.25
2023-03-26T09:08:57.112Z,8.00
2023-03-26T09:11:43.455Z,8.19
2023-03-26T09:14:30.185Z,8.19
2023-03-26T09:17:13.020Z,8.31
2023-03-26T09:20:17.445Z,8.41
2023-03-26T09:23:22.213Z,8.47
2023-03-26T09:25:55.008Z,8.61
2023-03-26T09:28:31.958Z,8.54
2023-03-26T09:31:28.640Z,8.41
2023-03-26T09:34:22.486Z,8.36
2023-03-26T09:37:02.877Z,8.17
2023-03-26T09:39:47.387Z,8.31
2023-03-26T09:42:22.406Z,8.25
2023-03-26T09:45:01.506Z,8.21
2023-03-26T09:48:05.657Z,8.19
2023-03-26T09:51:06.250Z,8.51
2023-03-26T09:53:59.726Z,8.49
2023-03-26T09:56:45.844Z,8.47
2023-03-26T09:59:28.315Z,8.80
2023-03-26T10:02:46.672Z,9.11
2023-03-26T10:05:49.997Z,9.31
2023-03-26T10:08:24.680Z,9.45
2023-03-26T10:11:05.842Z,9.76
2023-03-26T10:13:56.250Z,9.65
2023-03-26T10:16:42.500Z,9.83
2023-03-26T10:19:41.974Z,9.97
2023-03-26T10:22:20.204Z,10.15
2023-03-26T10:25:04.917Z,9.97
2023-03-26T10:27:55.935Z,9.41
2023-03-26T10:30:57.000Z,9.76
2023-03-26T10:33:45.225Z,10.02
2023-03-26T10:36:38.654Z,9.96
2023-03-26T10:39:36.284Z,10.03
2023-03-26T10:42:44.275Z,10.66
2023-03-26T10:45:35.834Z,10.94
2023-03-26T10:48:21.479Z,11.32
2023-03-26T10:51:07.285Z,11.54
2023-03-26T10:54:23.233Z,11.54
2023-03-26T10:56:51.678Z,11.54
2023-03-26T10:59:19.224Z,12.75
2023-03-26T11:02:20.876Z,12.10
2023-03-26T11:05:28.326Z,-138.62
2023-03-26T11:08:06.397Z,-138.62
2023-03-26T11:10:42.586Z,12.23
2023-03-26T11:13:21.606Z,12.23
2023-03-26T11:15:56.940Z,12.23
2023-03-26T11:18:47.978Z,11.79
2023-03-26T11:21:58.292Z,11.01
2023-03-26T11:24:25.587Z,11.55
2023-03-26T11:27:17.464Z,11.67
2023-03-26T11:30:17.651Z,11.30
2023-03-26T11:32:47.421Z,11.33
2023-03-26T11:35:41.009Z,12.05
2023-03-26T11:38:40.213Z,12.87
2023-03-26T11:41:22.534Z,13.04
2023-03-26T11:44:26.216Z,12.73
2023-03-26T11:46:58.987Z,12.41
2023-03-26T11:49:27.070Z,12.38
2023-03-26T11:51:54.424Z,11.88
2023-03-26T11:54:22.453Z,11.16
2023-03-26T11:57:05.019Z,10.74
2023-03-26T11:59:57.108Z,10.70
2023-03-26T12:02:32.776Z,11.22
2023-03-26T12:05:13.561Z,11.65
2023-03-26T12:08:01.743Z,11.99
2023-03-26T12:10:37.867Z,12.10
2023-03-26T12:13:26.832Z,12.75
2023-03-26T12:16:07.615Z,12.77
2023-03-26T12:18:35.265Z,13.04
2023-03-26T12:21:19.656Z,13.01
2023-03-26T12:24:05.739Z,13.13
2023-03-26T12:26:35.517Z,-138.62
2023-03-26T12:29:08.123Z,13.24
2023-03-26T12:31:51.085Z,-137.28
2023-03-26T12:34:31.131Z,-138.62
2023-03-26T12:37:01.439Z,-138.62
2023-03-26T12:40:06.972Z,-138.62
2023-03-26T12:44:52.932Z,-138.62
2023-03-26T12:45:42.375Z,-138.62
2023-03-26T12:48:16.174Z,-138.62
2023-03-26T12:51:02.458Z,-138.62
2023-03-26T12:53:48.822Z,-138.62
2023-03-26T12:56:22.931Z,-138.62
2023-03-26T12:59:11.947Z,-138.62
2023-03-26T13:02:17.967Z,-138.62
2023-03-26T13:05:02.155Z,-138.62
2023-03-26T13:07:55.804Z,-138.62
2023-03-26T13:10:25.856Z,-138.62
2023-03-26T13:13:23.886Z,-138.62
2023-03-26T13:15:53.860Z,-138.62
2023-03-26T13:18:56.715Z,-138.62
2023-03-26T13:21:45.484Z,-138.62
2023-03-26T13:24:41.520Z,-138.62
2023-03-26T13:27:26.689Z,-138.62
2023-03-26T13:30:03.120Z,-138.62
2023-03-26T13:32:58.974Z,-138.62
2023-03-26T13:35:39.618Z,-138.62
2023-03-26T13:38:34.972Z,-138.62
2023-03-26T13:41:35.692Z,-138.62
2023-03-26T13:44:30.326Z,-138.62
2023-03-26T13:47:20.152Z,-138.62
2023-03-26T13:49:52.882Z,-138.62
2023-03-26T13:52:28.788Z,-138.62
2023-03-26T13:55:21.042Z,-138.62
2023-03-26T13:58:12.232Z,-138.62
2023-03-26T14:00:57.519Z,-138.62
2023-03-26T14:03:54.296Z,-138.62
2023-03-26T14:06:42.313Z,-138.62
2023-03-26T14:09:19.042Z,-138.62
2023-03-26T14:12:06.535Z,-138.62
2023-03-26T14:15:06.646Z,-138.62
2023-03-26T14:17:39.809Z,-138.62
2023-03-26T14:20:20.813Z,-138.62
2023-03-26T14:22:51.092Z,-138.62
2023-03-26T14:25:47.184Z,-138.62
2023-03-26T14:28:20.657Z,-138.62
2023-03-26T14:31:15.092Z,-138.62
2023-03-26T14:34:02.345Z,-138.62
2023-03-26T14:36:59.696Z,-138.62
2023-03-26T14:39:58.183Z,-138.62
2023-03-26T14:42:37.271Z,-138.62
2023-03-26T14:45:34.171Z,-138.62
2023-03-26T14:48:32.025Z,-138.62
2023-03-26T14:51:23.403Z,-138.62
2023-03-26T14:53:59.112Z,-138.62
2023-03-26T14:56:47.375Z,-138.62
2023-03-26T14:59:39.686Z,-138.62
2023-03-26T15:02:37.936Z,-138.62
2023-03-26T15:05:17.591Z,-138.62
2023-03-26T15:08:15.892Z,-138.62
2023-03-26T15:11:02.212Z,-138.62
2023-03-26T15:13:42.188Z,-138.62
2023-03-26T15:16:34.114Z,-138.62
2023-03-26T15:19:28.683Z,-138.62
2023-03-26T15:22:25.602Z,-138.62
2023-03-26T15:25:25.422Z,-138.62
2023-03-26T15:28:20.818Z,-138.62
2023-03-26T15:31:16.739Z,-138.62
2023-03-26T15:34:02.922Z,-138.62
2023-03-26T15:36:59.250Z,-138.62
2023-03-26T15:40:07.773Z,-138.62
2023-03-26T15:42:45.567Z,-138.62
2023-03-26T15:45:37.851Z,-138.62
2023-03-26T15:48:13.985Z,-138.62
2023-03-26T15:51:12.051Z,-138.62
2023-03-26T15:53:57.798Z,-138.62
2023-03-26T15:56:43.604Z,-138.62
2023-03-26T15:59:12.121Z,-138.62
2023-03-26T16:02:10.043Z,-138.62
2023-03-26T16:04:37.898Z,-138.62
2023-03-26T16:07:14.383Z,-138.62
2023-03-26T16:10:13.526Z,-138.62
2023-03-26T16:13:15.335Z,-138.62
2023-03-26T16:15:42.783Z,-138.62
2023-03-26T16:18:17.242Z,-138.62
2023-03-26T16:21:31.299Z,-138.62
2023-03-26T16:24:02.565Z,-138.62
2023-03-26T16:26:47.501Z,-138.62
2023-03-26T16:29:15.773Z,-138.62
2023-03-26T16:32:11.042Z,-138.62
2023-03-26T16:35:02.109Z,-138.62
2023-03-26T16:37:33.640Z,-138.62
2023-03-26T16:40:30.047Z,-138.62
2023-03-26T16:43:22.116Z,-138.62
2023-03-26T16:46:05.413Z,-138.62
2023-03-26T16:48:46.353Z,-138.62
2023-03-26T16:51:34.146Z,-138.62
2023-03-26T16:54:17.771Z,-138.62
2023-03-26T16:56:59.977Z,-138.62
2023-03-26T17:00:08.576Z,-138.62
2023-03-26T17:02:56.927Z,-138.62
2023-03-26T17:05:30.544Z,-138.62
2023-03-26T17:08:14.665Z,-138.62
2023-03-26T17:11:23.807Z,-138.62
2023-03-26T17:14:27.808Z,-138.62
2023-03-26T17:17:29.494Z,-138.62
2023-03-26T17:20:09.334Z,-138.62
2023-03-26T17:22:47.127Z,-138.62
2023-03-26T17:25:32.688Z,-138.62
2023-03-26T17:28:19.903Z,-138.62
2023-03-26T17:31:14.369Z,-138.62
2023-03-26T17:33:42.275Z,-138.62
2023-03-26T17:36:15.154Z,-138.62
2023-03-26T17:38:48.204Z,-138.62
2023-03-26T17:41:55.740Z,-138.62
2023-03-26T17:44:45.069Z,-138.62
2023-03-26T17:47:25.180Z,-138.62
2023-03-26T17:50:00.287Z,-138.62
2023-03-26T17:52:53.289Z,-138.62
2023-03-26T17:55:25.745Z,-138.62
2023-03-26T17:58:01.704Z,-138.62
2023-03-26T18:00:43.218Z,-138.62
2023-03-26T18:03:40.136Z,-138.62
2023-03-26T18:06:13.317Z,-138.62
2023-03-26T18:08:42.629Z,-138.62
2023-03-26T18:11:47.877Z,-138.62
2023-03-26T18:14:27.215Z,-138.62
2023-03-26T18:16:59.734Z,-138.62
2023-03-26T18:19:28.497Z,-138.62
2023-03-26T18:22:03.206Z,-138.62
2023-03-26T18:24:32.829Z,-138.62
2023-03-26T18:27:11.881Z,-138.62
2023-03-26T18:29:44.615Z,-138.62
2023-03-26T18:32:12.001Z,-138.62
2023-03-26T18:34:46.500Z,-138.62
2023-03-26T18:37:19.508Z,-138.62
2023-03-26T18:40:16.462Z,-138.62
2023-03-26T18:42:47.268Z,-138.62
2023-03-26T18:45:23.258Z,-138.62
2023-03-26T18:47:56.872Z,-138.62
2023-03-26T18:50:34.721Z,-138.62
2023-03-26T18:53:02.450Z,-138.62
2023-03-26T18:55:34.506Z,-138.62
2023-03-26T18:58:20.811Z,-138.62
2023-03-26T19:00:49.962Z,-138.62
2023-03-26T19:03:20.867Z,-138.62
2023-03-26T19:05:49.352Z,-138.62
2023-03-26T19:08:17.657Z,-138.62
2023-03-26T19:10:48.065Z,-138.62
2023-03-26T19:13:15.452Z,-138.62
2023-03-26T19:15:46.604Z,-138.62
2023-03-26T19:18:19.340Z,-138.62
2023-03-26T19:20:50.506Z,-138.62
2023-03-26T19:23:20.240Z,-138.62
2023-03-26T19:25:51.649Z,-138.62
2023-03-26T19:28:20.765Z,-138.62
2023-03-26T19:30:53.514Z,-138.62
2023-03-26T19:33:21.463Z,-138.62
2023-03-26T19:35:59.796Z,-138.62
2023-03-26T19:38:29.676Z,-138.62
2023-03-26T19:40:58.102Z,-138.62
2023-03-26T19:43:26.261Z,-138.62
2023-03-26T19:46:00.416Z,-138.62
2023-03-26T19:48:45.264Z,-138.62
2023-03-26T19:51:35.809Z,-138.62
2023-03-26T19:54:14.775Z,-138.62
2023-03-26T19:56:43.670Z,-138.62
2023-03-26T19:59:11.040Z,-138.62
2023-03-26T20:01:38.529Z,-138.62
2023-03-26T20:04:10.890Z,-138.62
2023-03-26T20:06:43.623Z,-138.62
2023-03-26T20:09:12.884Z,-138.62
2023-03-26T20:11:40.996Z,-138.62
2023-03-26T20:14:14.423Z,-138.62
2023-03-26T20:16:43.830Z,-138.62
2023-03-26T20:22:01.062Z,-138.62
2023-03-26T20:24:28.539Z,-138.62
2023-03-26T20:26:55.801Z,-138.62
2023-03-26T20:29:23.496Z,-138.62
2023-03-26T20:31:50.684Z,-138.62
2023-03-26T20:34:21.975Z,-138.62
2023-03-26T20:36:55.273Z,-138.62
2023-03-26T20:39:24.425Z,-138.62
2023-03-26T20:41:53.359Z,-138.62
2023-03-26T20:44:21.954Z,-138.62
2023-03-26T20:46:50.052Z,-138.62
2023-03-26T20:49:18.213Z,-138.62
2023-03-26T20:51:46.978Z,-138.62
2023-03-26T20:54:24.460Z,-138.62
2023-03-26T20:56:53.651Z,-138.62
2023-03-26T20:59:27.167Z,-138.62
2023-03-26T21:01:56.862Z,-138.62
2023-03-26T21:04:25.117Z,-138.62
2023-03-26T21:06:57.605Z,-138.62
2023-03-26T21:09:35.362Z,-138.62
2023-03-26T21:12:08.011Z,-138.62
2023-03-26T21:14:41.125Z,-138.62
2023-03-26T21:17:17.244Z,-138.62
2023-03-26T21:19:45.104Z,-138.62
2023-03-26T21:23:08.872Z,-138.62
2023-03-26T21:25:35.970Z,-138.62
2023-03-26T21:28:12.181Z,-138.62
2023-03-26T21:30:39.979Z,-138.62
2023-03-26T21:33:07.417Z,-138.62
2023-03-26T21:35:35.051Z,-138.62
2023-03-26T21:38:04.711Z,-138.62
2023-03-26T21:40:32.123Z,-138.62
2023-03-26T21:42:59.635Z,-138.62
2023-03-26T21:45:27.058Z,-138.62
2023-03-26T21:47:54.444Z,-138.62
2023-03-26T21:50:23.541Z,-138.62
2023-03-26T21:52:51.740Z,-138.62
2023-03-26T21:55:21.093Z,-138.62
2023-03-26T21:57:50.820Z,-138.62
2023-03-26T22:00:18.906Z,-138.62
2023-03-26T22:02:59.571Z,-138.62
2023-03-26T22:05:46.578Z,-138.62
2023-03-26T22:08:29.842Z,-138.62
2023-03-26T22:10:57.549Z,-138.62
2023-03-26T22:13:25.527Z,-138.62
2023-03-26T22:15:53.011Z,-138.62
2023-03-26T22:18:21.728Z,-138.62
2023-03-26T22:20:49.467Z,-138.62
2023-03-26T22:23:17.102Z,-138.62
2023-03-26T22:25:45.507Z,-138.62
2023-03-26T22:28:12.892Z,-138.62
2023-03-26T22:30:42.094Z,-138.62
2023-03-26T22:33:11.278Z,-138.62
2023-03-26T22:35:39.044Z,-138.62
2023-03-26T22:38:07.322Z,-138.62
2023-03-26T22:40:38.066Z,-138.62
2023-03-26T22:43:05.299Z,-138.62
2023-03-26T22:45:32.606Z,-138.62
2023-03-26T22:48:03.918Z,-138.62
2023-03-26T22:50:32.545Z,-138.62
2023-03-26T22:52:59.793Z,-138.62
2023-03-26T22:55:28.369Z,-138.62
2023-03-26T22:57:56.605Z,-138.62
2023-03-26T23:00:24.039Z,-138.62
2023-03-26T23:02:51.250Z,-138.62
2023-03-26T23:05:18.664Z,-138.62
2023-03-26T23:07:46.325Z,-138.62
2023-03-26T23:10:13.861Z,-138.62
2023-03-26T23:12:41.732Z,-138.62
2023-03-26T23:15:09.825Z,-138.62
2023-03-26T23:17:37.989Z,-138.62
2023-03-26T23:20:13.540Z,-138.62
2023-03-26T23:22:41.775Z,-138.62
2023-03-26T23:25:10.202Z,-138.62
2023-03-26T23:27:37.829Z,-138.62
2023-03-26T23:30:05.614Z,-138.62
2023-03-26T23:32:33.181Z,-138.62
2023-03-26T23:35:00.536Z,-138.62
2023-03-26T23:37:29.438Z,-138.62
2023-03-26T23:39:56.481Z,-138.62
2023-03-26T23:42:28.934Z,-138.62
2023-03-26T23:44:57.464Z,-138.62
2023-03-26T23:47:24.728Z,-138.62
2023-03-26T23:49:51.763Z,-138.62
2023-03-26T23:52:19.030Z,-138.62
2023-03-26T23:54:47.288Z,-138.62
2023-03-26T23:57:14.549Z,-138.62
2023-03-26T23:59:41.813Z,-138.62
